Time;durP1;ratioP1;P1;durP2;ratioP2;P2;SDS_P1;SDS_P2;PMS_P1;PMS_P2;Temp;Humidity;BMP_temperature;BMP_pressure;BME280_temperature;BME280_humidity;BME280_pressure;Samples;Min_cycle;Max_cycle;Signal;HPM_P1;HPM_P2
2022/10/26 00:00:35;;;;;;;;;;;358.50;2329.60;;;;;;5013547;28;19909;-58
2022/10/26 00:03:01;;;;;;;;;;;358.50;2329.60;;;;;;5014225;28;19913;-57
2022/10/26 00:05:26;;;;;;;;;;;358.40;2329.60;;;;;;5013989;28;19922;-66
2022/10/26 00:07:52;;;;;;;;;;;358.40;2329.60;;;;;;5014365;28;20012;-57
2022/10/26 00:10:20;;;;;;;;;;;358.40;2329.60;;;;;;5014368;28;19972;-56
2022/10/26 00:12:49;;;;;;;;;;;358.40;2329.60;;;;;;5014265;28;19910;-57
2022/10/26 00:15:15;;;;;;;;;;;358.40;2329.60;;;;;;5013939;28;20379;-65
2022/10/26 00:17:41;;;;;;;;;;;333.70;2329.60;;;;;;5013780;28;19917;-57
2022/10/26 00:20:07;;;;;;;;;;;333.70;2329.60;;;;;;5013899;28;19977;-55
2022/10/26 00:22:32;;;;;;;;;;;358.40;2329.60;;;;;;5013897;28;19915;-58
2022/10/26 00:24:58;;;;;;;;;;;358.40;2329.60;;;;;;5013972;28;19916;-58
2022/10/26 00:27:23;;;;;;;;;;;358.40;2329.60;;;;;;5012686;28;19917;-57
2022/10/26 00:29:49;;;;;;;;;;;333.70;2329.60;;;;;;5013441;28;20445;-57
2022/10/26 00:32:14;;;;;;;;;;;333.70;2329.60;;;;;;5013862;28;20375;-57
2022/10/26 00:34:40;;;;;;;;;;;333.70;2329.60;;;;;;5013425;28;19910;-57
2022/10/26 00:37:05;;;;;;;;;;;333.70;2329.60;;;;;;5013755;28;19918;-58
2022/10/26 00:39:31;;;;;;;;;;;333.70;2329.60;;;;;;5013616;28;20000;-57
2022/10/26 00:41:56;;;;;;;;;;;333.70;2329.60;;;;;;5013579;28;19909;-57
2022/10/26 00:44:41;;;;;;;;;;;333.70;2329.60;;;;;;5013378;28;20390;-57
2022/10/26 00:47:08;;;;;;;;;;;333.50;2329.60;;;;;;5013420;28;19917;-56
2022/10/26 00:49:34;;;;;;;;;;;333.50;2329.60;;;;;;5013604;28;19957;-57
2022/10/26 00:52:00;;;;;;;;;;;333.50;2329.60;;;;;;5013387;28;19956;-58
2022/10/26 00:54:25;;;;;;;;;;;333.50;2329.60;;;;;;5013403;28;19910;-61
2022/10/26 00:56:52;;;;;;;;;;;333.40;2329.60;;;;;;5012795;28;19917;-57
2022/10/26 00:59:17;;;;;;;;;;;333.40;2329.60;;;;;;5024219;28;19960;-57
2022/10/26 01:01:44;;;;;;;;;;;333.40;2329.60;;;;;;5016671;28;19953;-58
2022/10/26 01:04:11;;;;;;;;;;;333.30;2329.60;;;;;;5019619;28;19913;-58
2022/10/26 01:06:37;;;;;;;;;;;333.30;2329.60;;;;;;5023728;28;20394;-63
2022/10/26 01:09:03;;;;;;;;;;;333.30;2329.60;;;;;;5021680;28;19910;-58
2022/10/26 01:11:29;;;;;;;;;;;333.30;2329.60;;;;;;5021930;28;19916;-57
2022/10/26 01:13:55;;;;;;;;;;;333.30;2329.60;;;;;;5023111;28;20266;-64
2022/10/26 01:16:24;;;;;;;;;;;333.20;2329.60;;;;;;5022029;28;19917;-55
2022/10/26 01:19:09;;;;;;;;;;;333.20;2329.60;;;;;;5032381;28;19920;-56
2022/10/26 01:21:54;;;;;;;;;;;333.20;2329.60;;;;;;5030477;28;19919;-57
2022/10/26 01:24:37;;;;;;;;;;;333.20;2329.60;;;;;;5030078;28;20310;-58
2022/10/26 01:27:03;;;;;;;;;;;333.20;2329.60;;;;;;5030281;28;19917;-64
2022/10/26 01:29:31;;;;;;;;;;;333.20;2329.60;;;;;;5030094;28;19916;-56
2022/10/26 01:32:02;;;;;;;;;;;333.20;2329.60;;;;;;5030384;28;20007;-57
2022/10/26 01:34:30;;;;;;;;;;;333.20;2329.60;;;;;;5030242;28;19936;-57
2022/10/26 01:36:59;;;;;;;;;;;333.10;2329.60;;;;;;5030382;28;19920;-57
2022/10/26 01:39:34;;;;;;;;;;;333.20;2329.60;;;;;;5030136;28;19913;-61
2022/10/26 01:42:01;;;;;;;;;;;333.10;2329.60;;;;;;5030001;28;19913;-57
2022/10/26 01:44:48;;;;;;;;;;;333.10;2329.60;;;;;;5030039;28;20355;-57
2022/10/26 01:47:15;;;;;;;;;;;333.10;2329.60;;;;;;5029766;28;19917;-64
2022/10/26 01:49:45;;;;;;;;;;;333.10;2329.60;;;;;;5029691;28;20478;-57
2022/10/26 01:52:11;;;;;;;;;;;333.00;2329.60;;;;;;5029845;28;19952;-57
2022/10/26 01:54:37;;;;;;;;;;;333.00;2329.60;;;;;;5029907;28;20036;-57
2022/10/26 01:57:04;;;;;;;;;;;333.00;2329.60;;;;;;5029739;28;19916;-57
2022/10/26 01:59:35;;;;;;;;;;;332.90;2329.60;;;;;;5031255;28;20446;-58
2022/10/26 02:02:04;;;;;;;;;;;332.90;2329.60;;;;;;5031798;28;20390;-57
2022/10/26 02:04:48;;;;;;;;;;;332.90;2329.60;;;;;;5031322;28;20279;-62
2022/10/26 02:07:20;;;;;;;;;;;332.90;2329.60;;;;;;5031559;28;19976;-57
2022/10/26 02:10:04;;;;;;;;;;;332.90;2329.60;;;;;;5031743;28;19910;-56
2022/10/26 02:12:50;;;;;;;;;;;332.90;2329.60;;;;;;5031712;28;19909;-57
2022/10/26 02:15:16;;;;;;;;;;;332.90;2329.60;;;;;;5030784;28;19909;-57
2022/10/26 02:17:45;;;;;;;;;;;332.80;2329.60;;;;;;5031468;28;19909;-65
2022/10/26 02:20:18;;;;;;;;;;;308.10;2304.00;;;;;;5031446;28;19916;-57
2022/10/26 02:22:46;;;;;;;;;;;332.80;2329.60;;;;;;5030414;28;19909;-56
2022/10/26 02:25:15;;;;;;;;;;;332.80;2329.60;;;;;;5031212;28;19909;-61
2022/10/26 02:27:44;;;;;;;;;;;332.80;2329.60;;;;;;5031409;28;19917;-57
2022/10/26 02:30:10;;;;;;;;;;;308.10;2304.00;;;;;;5031241;28;20008;-58
2022/10/26 02:32:37;;;;;;;;;;;308.10;2304.00;;;;;;5031269;28;19956;-57
2022/10/26 02:35:03;;;;;;;;;;;308.10;2304.00;;;;;;5031112;28;19969;-57
2022/10/26 02:37:30;;;;;;;;;;;308.10;2304.00;;;;;;5031255;28;20274;-57
2022/10/26 02:39:56;;;;;;;;;;;308.00;2304.00;;;;;;5031099;28;20348;-57
2022/10/26 02:42:23;;;;;;;;;;;308.00;2304.00;;;;;;5030950;28;19917;-58
2022/10/26 02:44:52;;;;;;;;;;;308.10;2304.00;;;;;;5031048;28;20290;-66
2022/10/26 02:47:18;;;;;;;;;;;308.00;2304.00;;;;;;5030955;28;19921;-57
2022/10/26 02:49:44;;;;;;;;;;;307.90;2304.00;;;;;;5030898;28;19916;-57
2022/10/26 02:52:20;;;;;;;;;;;307.90;2304.00;;;;;;5030999;28;19909;-56
2022/10/26 02:54:46;;;;;;;;;;;307.90;2304.00;;;;;;5030943;28;20287;-56
2022/10/26 02:57:14;;;;;;;;;;;307.90;2304.00;;;;;;5030759;28;19909;-57
2022/10/26 02:59:42;;;;;;;;;;;307.80;2304.00;;;;;;5030628;28;20373;-59
2022/10/26 03:02:08;;;;;;;;;;;307.80;2304.00;;;;;;5030908;28;19946;-57
2022/10/26 03:04:34;;;;;;;;;;;307.70;2304.00;;;;;;5030727;28;19921;-56
2022/10/26 03:07:00;;;;;;;;;;;307.70;2304.00;;;;;;5030904;28;20370;-64
2022/10/26 03:09:25;;;;;;;;;;;307.70;2304.00;;;;;;5030927;28;19952;-60
2022/10/26 03:11:51;;;;;;;;;;;307.60;2304.00;;;;;;5030594;28;19909;-58
2022/10/26 03:14:17;;;;;;;;;;;307.60;2304.00;;;;;;5030945;28;20286;-57
2022/10/26 03:16:42;;;;;;;;;;;307.60;2304.00;;;;;;5030575;28;20413;-57
2022/10/26 03:19:08;;;;;;;;;;;307.60;2304.00;;;;;;5030809;28;20379;-56
2022/10/26 03:21:33;;;;;;;;;;;307.60;2304.00;;;;;;5030610;28;19913;-57
2022/10/26 03:23:59;;;;;;;;;;;307.50;2304.00;;;;;;5030632;28;19913;-57
2022/10/26 03:26:24;;;;;;;;;;;307.60;2304.00;;;;;;5030110;28;19956;-57
2022/10/26 03:28:50;;;;;;;;;;;307.60;2304.00;;;;;;5030648;28;19909;-57
2022/10/26 03:31:15;;;;;;;;;;;307.50;2304.00;;;;;;5030532;28;20274;-58
2022/10/26 03:33:41;;;;;;;;;;;307.50;2304.00;;;;;;5030315;28;19954;-57
2022/10/26 03:36:07;;;;;;;;;;;307.50;2304.00;;;;;;5034766;28;19913;-57
2022/10/26 03:38:32;;;;;;;;;;;307.50;2304.00;;;;;;5034624;28;19910;-57
2022/10/26 03:40:58;;;;;;;;;;;307.50;2304.00;;;;;;5034450;28;20367;-56
2022/10/26 03:43:24;;;;;;;;;;;307.50;2304.00;;;;;;5034268;28;20008;-57
2022/10/26 03:45:49;;;;;;;;;;;307.50;2304.00;;;;;;5034255;28;19909;-56
2022/10/26 03:48:15;;;;;;;;;;;307.50;2304.00;;;;;;5034491;28;19917;-56
2022/10/26 03:50:40;;;;;;;;;;;307.50;2304.00;;;;;;5034306;28;19909;-56
2022/10/26 03:53:06;;;;;;;;;;;307.50;2304.00;;;;;;5034515;28;20023;-57
2022/10/26 03:55:31;;;;;;;;;;;307.50;2304.00;;;;;;5034226;28;19909;-57
2022/10/26 03:57:57;;;;;;;;;;;307.50;2304.00;;;;;;5034121;28;19909;-57
2022/10/26 04:00:23;;;;;;;;;;;307.50;2304.00;;;;;;5034079;28;20013;-56
2022/10/26 04:02:58;;;;;;;;;;;307.50;2304.00;;;;;;5034105;28;20260;-57
2022/10/26 04:05:24;;;;;;;;;;;307.40;2304.00;;;;;;5033689;28;19961;-57
2022/10/26 04:07:53;;;;;;;;;;;307.50;2304.00;;;;;;5033936;28;20433;-57
2022/10/26 04:10:18;;;;;;;;;;;307.40;2304.00;;;;;;5033908;28;19913;-57
2022/10/26 04:12:44;;;;;;;;;;;307.40;2304.00;;;;;;5033693;28;19913;-56
2022/10/26 04:15:10;;;;;;;;;;;307.40;2304.00;;;;;;5033892;28;20023;-56
2022/10/26 04:17:35;;;;;;;;;;;307.50;2304.00;;;;;;5034116;28;20004;-57
2022/10/26 04:20:01;;;;;;;;;;;307.50;2304.00;;;;;;5033819;28;20004;-57
2022/10/26 04:22:26;;;;;;;;;;;307.50;2304.00;;;;;;5033961;28;20359;-57
2022/10/26 04:24:52;;;;;;;;;;;307.50;2304.00;;;;;;5033510;28;19910;-57
2022/10/26 04:27:18;;;;;;;;;;;307.50;2304.00;;;;;;5033526;28;20020;-58
2022/10/26 04:29:43;;;;;;;;;;;307.60;2304.00;;;;;;5033507;28;19909;-57
2022/10/26 04:32:09;;;;;;;;;;;307.60;2304.00;;;;;;5033670;28;19952;-57
2022/10/26 04:34:34;;;;;;;;;;;307.60;2304.00;;;;;;5033398;28;20427;-57
2022/10/26 04:37:00;;;;;;;;;;;307.50;2304.00;;;;;;5033722;28;19913;-57
2022/10/26 04:39:25;;;;;;;;;;;307.50;2304.00;;;;;;5033494;28;19916;-57
2022/10/26 04:41:52;;;;;;;;;;;307.50;2304.00;;;;;;5032098;28;19916;-57
2022/10/26 04:44:18;;;;;;;;;;;307.40;2304.00;;;;;;5033533;28;19941;-57
2022/10/26 04:46:43;;;;;;;;;;;307.30;2304.00;;;;;;5031825;28;19971;-57
2022/10/26 04:49:09;;;;;;;;;;;307.20;2304.00;;;;;;5033237;28;19916;-57
2022/10/26 04:51:34;;;;;;;;;;;307.20;2304.00;;;;;;5033564;28;19920;-57
2022/10/26 04:54:01;;;;;;;;;;;307.20;2304.00;;;;;;5033103;28;20267;-57
2022/10/26 04:56:27;;;;;;;;;;;307.20;2304.00;;;;;;5033231;28;20354;-63
2022/10/26 04:58:53;;;;;;;;;;;307.20;2304.00;;;;;;5032864;28;19916;-57
2022/10/26 05:01:18;;;;;;;;;;;307.20;2304.00;;;;;;5033123;28;19910;-57
2022/10/26 05:03:47;;;;;;;;;;;307.20;2304.00;;;;;;5032786;28;20318;-65
2022/10/26 05:06:13;;;;;;;;;;;307.20;2304.00;;;;;;5032540;28;19925;-57
2022/10/26 05:08:38;;;;;;;;;;;307.20;2304.00;;;;;;5032934;28;20317;-57
2022/10/26 05:11:04;;;;;;;;;;;307.40;2304.00;;;;;;5032843;28;19909;-56
2022/10/26 05:13:29;;;;;;;;;;;307.20;2304.00;;;;;;5024394;28;19921;-62
2022/10/26 05:15:55;;;;;;;;;;;282.50;2278.40;;;;;;5013119;28;19917;-60
2022/10/26 05:18:20;;;;;;;;;;;307.20;2304.00;;;;;;5012848;28;19916;-56
2022/10/26 05:20:48;;;;;;;;;;;307.20;2304.00;;;;;;5013069;28;20064;-56
2022/10/26 05:23:17;;;;;;;;;;;307.20;2304.00;;;;;;5012775;28;20253;-57
2022/10/26 05:25:43;;;;;;;;;;;307.20;2304.00;;;;;;5012605;28;19910;-57
2022/10/26 05:28:10;;;;;;;;;;;307.30;2304.00;;;;;;5012707;28;19924;-57
2022/10/26 05:30:36;;;;;;;;;;;307.40;2304.00;;;;;;5012829;28;19910;-64
2022/10/26 05:33:02;;;;;;;;;;;307.30;2304.00;;;;;;5012739;28;19917;-57
2022/10/26 05:35:27;;;;;;;;;;;307.40;2304.00;;;;;;5012510;28;19919;-56
2022/10/26 05:37:53;;;;;;;;;;;307.50;2304.00;;;;;;5012626;28;20000;-56
2022/10/26 05:40:19;;;;;;;;;;;307.50;2304.00;;;;;;5012627;28;19910;-64
2022/10/26 05:42:44;;;;;;;;;;;307.60;2304.00;;;;;;5012122;28;19920;-64
2022/10/26 05:45:10;;;;;;;;;;;307.60;2304.00;;;;;;5012153;28;19914;-57
2022/10/26 05:47:40;;;;;;;;;;;307.70;2304.00;;;;;;5012161;28;19917;-57
2022/10/26 05:50:06;;;;;;;;;;;307.80;2304.00;;;;;;5012370;28;19914;-57
2022/10/26 05:52:37;;;;;;;;;;;307.70;2304.00;;;;;;5012011;28;20005;-58
2022/10/26 05:55:02;;;;;;;;;;;307.80;2304.00;;;;;;5012117;28;19964;-58
2022/10/26 05:57:28;;;;;;;;;;;307.80;2304.00;;;;;;5011942;28;19914;-65
2022/10/26 05:59:54;;;;;;;;;;;307.60;2304.00;;;;;;5012178;28;19910;-60
2022/10/26 06:02:22;;;;;;;;;;;307.50;2304.00;;;;;;5011964;28;19917;-58
2022/10/26 06:04:49;;;;;;;;;;;307.60;2304.00;;;;;;5011760;28;19929;-60
2022/10/26 06:07:19;;;;;;;;;;;307.60;2304.00;;;;;;5011868;28;19944;-60
2022/10/26 06:09:46;;;;;;;;;;;307.70;2304.00;;;;;;5012045;28;19933;-60
2022/10/26 06:12:11;;;;;;;;;;;307.90;2304.00;;;;;;5011560;28;20348;-60
2022/10/26 06:14:37;;;;;;;;;;;307.80;2304.00;;;;;;5012053;28;19917;-61
2022/10/26 06:17:18;;;;;;;;;;;307.80;2304.00;;;;;;5012016;28;19909;-58
2022/10/26 06:19:45;;;;;;;;;;;307.50;2304.00;;;;;;5031580;28;19996;-60
2022/10/26 06:22:16;;;;;;;;;;;307.50;2304.00;;;;;;5031507;28;19916;-58
2022/10/26 06:24:47;;;;;;;;;;;307.50;2304.00;;;;;;5031045;28;19916;-59
2022/10/26 06:27:13;;;;;;;;;;;307.60;2304.00;;;;;;5031191;28;20418;-59
2022/10/26 06:29:38;;;;;;;;;;;307.60;2304.00;;;;;;5031635;28;19937;-60
2022/10/26 06:32:04;;;;;;;;;;;307.80;2304.00;;;;;;5031391;28;19909;-59
2022/10/26 06:34:34;;;;;;;;;;;307.60;2304.00;;;;;;5031093;28;19913;-59
2022/10/26 06:36:59;;;;;;;;;;;307.90;2304.00;;;;;;5030894;28;19999;-59
2022/10/26 06:39:30;;;;;;;;;;;308.00;2304.00;;;;;;5031116;28;19917;-60
2022/10/26 06:41:56;;;;;;;;;;;308.10;2304.00;;;;;;5031465;28;20282;-60
2022/10/26 06:44:22;;;;;;;;;;;332.80;2329.60;;;;;;5031092;28;19909;-59
2022/10/26 06:46:48;;;;;;;;;;;332.90;2329.60;;;;;;5031145;28;19947;-58
2022/10/26 06:49:21;;;;;;;;;;;332.90;2329.60;;;;;;5030918;28;20010;-58
2022/10/26 06:51:52;;;;;;;;;;;332.90;2329.60;;;;;;5030995;28;19936;-58
2022/10/26 06:54:30;;;;;;;;;;;333.00;2329.60;;;;;;5029394;28;20004;-60
2022/10/26 06:56:56;;;;;;;;;;;333.00;2329.60;;;;;;5030795;28;20004;-58
2022/10/26 06:59:35;;;;;;;;;;;333.20;2329.60;;;;;;5030569;28;20016;-58
2022/10/26 07:02:01;;;;;;;;;;;333.30;2329.60;;;;;;5030763;28;19952;-58
2022/10/26 07:04:26;;;;;;;;;;;333.20;2329.60;;;;;;5030669;28;19952;-59
2022/10/26 07:06:52;;;;;;;;;;;333.30;2329.60;;;;;;5030448;28;19921;-60
2022/10/26 07:09:17;;;;;;;;;;;333.40;2329.60;;;;;;5030241;28;19909;-60
2022/10/26 07:11:43;;;;;;;;;;;333.40;2329.60;;;;;;5030711;28;19960;-58
2022/10/26 07:14:09;;;;;;;;;;;333.60;2329.60;;;;;;5030833;28;19979;-60
2022/10/26 07:16:34;;;;;;;;;;;358.70;2329.60;;;;;;5030728;28;20424;-59
2022/10/26 07:19:00;;;;;;;;;;;435.40;2355.20;;;;;;5030542;28;19913;-60
2022/10/26 07:21:26;;;;;;;;;;;487.00;2380.80;;;;;;5030605;28;20279;-61
2022/10/26 07:23:54;;;;;;;;;;;538.20;2355.20;;;;;;5030419;28;19963;-59
2022/10/26 07:26:20;;;;;;;;;;;588.80;2176.00;;;;;;5030558;28;19917;-61
2022/10/26 07:28:47;;;;;;;;;;;614.80;1971.20;;;;;;5030685;28;20270;-61
2022/10/26 07:31:12;;;;;;;;;;;640.10;1868.80;;;;;;5030317;28;19909;-61
2022/10/26 07:33:38;;;;;;;;;;;666.00;1766.40;;;;;;5030541;28;19916;-61
2022/10/26 07:36:03;;;;;;;;;;;666.50;1715.20;;;;;;5030370;28;19913;-60
2022/10/26 07:38:29;;;;;;;;;;;666.00;1740.80;;;;;;5030568;28;20864;-61
2022/10/26 07:40:55;;;;;;;;;;;665.90;1715.20;;;;;;5030767;28;20040;-60
2022/10/26 07:43:20;;;;;;;;;;;691.20;1664.00;;;;;;5030424;28;20278;-60
2022/10/26 07:45:48;;;;;;;;;;;716.80;1638.40;;;;;;5030509;28;19910;-60
2022/10/26 07:48:13;;;;;;;;;;;742.80;1561.60;;;;;;5030066;28;19961;-61
2022/10/26 07:50:39;;;;;;;;;;;743.30;1484.80;;;;;;5030258;28;19909;-61
2022/10/26 07:53:04;;;;;;;;;;;768.50;1459.20;;;;;;5030224;28;19920;-60
2022/10/26 07:55:30;;;;;;;;;;;768.40;1433.60;;;;;;5029996;28;19909;-61
2022/10/26 07:57:55;;;;;;;;;;;742.90;1510.40;;;;;;5030319;28;19967;-61
2022/10/26 08:00:21;;;;;;;;;;;793.60;1459.20;;;;;;5030265;28;19995;-61
2022/10/26 08:02:46;;;;;;;;;;;768.70;1408.00;;;;;;5030268;28;19909;-61
2022/10/26 08:05:12;;;;;;;;;;;793.60;1433.60;;;;;;5029828;28;19921;-61
2022/10/26 08:07:41;;;;;;;;;;;743.00;1459.20;;;;;;5029977;28;19925;-61
2022/10/26 08:10:07;;;;;;;;;;;717.70;1510.40;;;;;;5030036;28;19909;-61
2022/10/26 08:12:33;;;;;;;;;;;768.80;1433.60;;;;;;5030029;28;19916;-61
2022/10/26 08:14:58;;;;;;;;;;;794.20;1382.40;;;;;;5030203;28;19962;-60
2022/10/26 08:17:24;;;;;;;;;;;819.80;1331.20;;;;;;5029859;28;20291;-61
2022/10/26 08:19:49;;;;;;;;;;;794.10;1382.40;;;;;;5030315;28;20275;-61
2022/10/26 08:22:15;;;;;;;;;;;794.00;1382.40;;;;;;5033775;28;20298;-61
2022/10/26 08:24:42;;;;;;;;;;;844.80;1356.80;;;;;;5033542;28;19913;-61
2022/10/26 08:27:08;;;;;;;;;;;845.50;1280.00;;;;;;5033478;28;19964;-59
2022/10/26 08:29:34;;;;;;;;;;;793.80;1382.40;;;;;;5033779;28;19913;-60
2022/10/26 08:31:59;;;;;;;;;;;768.40;1433.60;;;;;;5033580;28;20340;-61
2022/10/26 08:34:25;;;;;;;;;;;743.30;1433.60;;;;;;5033446;28;19971;-61
2022/10/26 08:36:50;;;;;;;;;;;794.50;1356.80;;;;;;5033463;28;19983;-59
2022/10/26 08:39:16;;;;;;;;;;;819.30;1331.20;;;;;;5033444;28;20370;-59
2022/10/26 08:41:42;;;;;;;;;;;768.70;1408.00;;;;;;5033334;28;19909;-62
2022/10/26 08:44:29;;;;;;;;;;;794.00;1382.40;;;;;;5033452;28;19909;-61
2022/10/26 08:47:01;;;;;;;;;;;768.90;1408.00;;;;;;5031670;28;19928;-60
2022/10/26 08:49:37;;;;;;;;;;;743.30;1433.60;;;;;;5031773;28;19909;-60
2022/10/26 08:52:03;;;;;;;;;;;743.20;1484.80;;;;;;5031333;28;19917;-61
2022/10/26 08:54:33;;;;;;;;;;;742.50;1484.80;;;;;;5031869;28;19913;-60
2022/10/26 08:57:01;;;;;;;;;;;717.40;1484.80;;;;;;5031788;28;20424;-59
2022/10/26 08:59:34;;;;;;;;;;;742.50;1484.80;;;;;;5031229;28;19909;-60
2022/10/26 09:02:01;;;;;;;;;;;717.20;1510.40;;;;;;5031414;28;19987;-60
2022/10/26 09:04:28;;;;;;;;;;;742.50;1484.80;;;;;;5031126;28;19917;-61
2022/10/26 09:06:59;;;;;;;;;;;691.70;1536.00;;;;;;5031461;28;20375;-60
2022/10/26 09:09:28;;;;;;;;;;;692.10;1536.00;;;;;;5031613;28;20059;-59
2022/10/26 09:11:56;;;;;;;;;;;717.10;1536.00;;;;;;5030830;28;20283;-59
2022/10/26 09:14:39;;;;;;;;;;;666.00;1612.80;;;;;;5031033;28;19909;-61
2022/10/26 09:17:25;;;;;;;;;;;640.50;1664.00;;;;;;5030901;28;20055;-59
2022/10/26 09:19:56;;;;;;;;;;;640.80;1664.00;;;;;;5030760;28;19920;-60
2022/10/26 09:22:22;;;;;;;;;;;614.90;1740.80;;;;;;5030996;28;19909;-60
2022/10/26 09:24:52;;;;;;;;;;;614.80;1766.40;;;;;;5030527;28;20371;-60
2022/10/26 09:27:17;;;;;;;;;;;589.20;1817.60;;;;;;5030763;28;19924;-61
2022/10/26 09:29:43;;;;;;;;;;;564.10;1868.80;;;;;;5019494;28;19918;-58
2022/10/26 09:32:29;;;;;;;;;;;588.90;1868.80;;;;;;5016661;28;20279;-57
2022/10/26 09:35:00;;;;;;;;;;;588.80;1868.80;;;;;;5016651;28;19914;-59
2022/10/26 09:37:32;;;;;;;;;;;589.10;1817.60;;;;;;5014686;28;19925;-59
2022/10/26 09:40:04;;;;;;;;;;;588.80;1868.80;;;;;;5018819;28;19910;-60
2022/10/26 09:42:32;;;;;;;;;;;589.00;1843.20;;;;;;5020573;28;19913;-60
2022/10/26 09:45:24;;;;;;;;;;;563.80;1894.40;;;;;;5015176;28;19931;-60
2022/10/26 09:47:51;;;;;;;;;;;588.90;1868.80;;;;;;5012821;28;20368;-59
2022/10/26 09:50:22;;;;;;;;;;;564.10;1868.80;;;;;;5012424;28;19910;-61
2022/10/26 09:52:48;;;;;;;;;;;588.80;1868.80;;;;;;5012272;28;19914;-60
2022/10/26 09:55:13;;;;;;;;;;;564.10;1868.80;;;;;;5012043;28;19956;-61
2022/10/26 09:57:41;;;;;;;;;;;589.00;1843.20;;;;;;5012151;28;19914;-60
2022/10/26 10:00:14;;;;;;;;;;;589.30;1817.60;;;;;;5012265;28;20332;-59
2022/10/26 10:02:44;;;;;;;;;;;589.10;1817.60;;;;;;5012047;28;20433;-59
2022/10/26 10:05:28;;;;;;;;;;;589.20;1817.60;;;;;;5011722;28;19921;-61
2022/10/26 10:08:10;;;;;;;;;;;588.90;1868.80;;;;;;5011725;28;19977;-59
2022/10/26 10:10:35;;;;;;;;;;;589.00;1843.20;;;;;;5012020;28;19941;-59
2022/10/26 10:13:13;;;;;;;;;;;564.10;1817.60;;;;;;5011755;28;20365;-59
2022/10/26 10:15:39;;;;;;;;;;;588.80;1843.20;;;;;;5011855;28;19948;-59
2022/10/26 10:18:04;;;;;;;;;;;588.80;1792.00;;;;;;5011721;28;20021;-59
2022/10/26 10:20:31;;;;;;;;;;;589.00;1792.00;;;;;;5011741;28;19909;-60
2022/10/26 10:22:58;;;;;;;;;;;588.80;1792.00;;;;;;5011927;28;19910;-60
2022/10/26 10:25:34;;;;;;;;;;;564.10;1792.00;;;;;;5011720;28;19915;-59
2022/10/26 10:28:00;;;;;;;;;;;589.00;1792.00;;;;;;5011763;28;20356;-60
2022/10/26 10:30:30;;;;;;;;;;;589.10;1766.40;;;;;;5011856;28;19949;-61
2022/10/26 10:33:06;;;;;;;;;;;564.00;1766.40;;;;;;5011834;28;20008;-58
2022/10/26 10:35:32;;;;;;;;;;;563.80;1792.00;;;;;;5010857;28;20276;-57
2022/10/26 10:37:58;;;;;;;;;;;564.00;1766.40;;;;;;5011655;28;19921;-61
2022/10/26 10:40:25;;;;;;;;;;;564.10;1766.40;;;;;;5011320;28;19909;-57
2022/10/26 10:42:52;;;;;;;;;;;564.00;1792.00;;;;;;5011396;28;19909;-58
2022/10/26 10:45:22;;;;;;;;;;;563.70;1766.40;;;;;;5010631;28;19910;-59
2022/10/26 10:48:01;;;;;;;;;;;563.70;1766.40;;;;;;5011497;28;19971;-59
2022/10/26 10:50:27;;;;;;;;;;;564.00;1766.40;;;;;;5011240;28;19956;-60
2022/10/26 10:52:53;;;;;;;;;;;563.90;1766.40;;;;;;5011084;28;20279;-60
2022/10/26 10:55:20;;;;;;;;;;;564.00;1766.40;;;;;;5011242;28;19909;-61
2022/10/26 10:57:51;;;;;;;;;;;564.00;1740.80;;;;;;5011228;28;19920;-57
2022/10/26 11:00:18;;;;;;;;;;;588.80;1766.40;;;;;;5011280;28;19960;-59
2022/10/26 11:02:46;;;;;;;;;;;564.10;1766.40;;;;;;5011095;28;19910;-60
2022/10/26 11:05:18;;;;;;;;;;;564.10;1766.40;;;;;;5010942;28;19922;-58
2022/10/26 11:07:50;;;;;;;;;;;589.00;1766.40;;;;;;5010966;28;19921;-61
2022/10/26 11:10:17;;;;;;;;;;;588.90;1766.40;;;;;;5010995;28;19909;-58
2022/10/26 11:12:47;;;;;;;;;;;588.90;1766.40;;;;;;5010660;28;19995;-60
2022/10/26 11:15:15;;;;;;;;;;;589.10;1740.80;;;;;;5011039;28;19932;-61
2022/10/26 11:17:49;;;;;;;;;;;589.00;1715.20;;;;;;5010840;28;20249;-61
2022/10/26 11:20:17;;;;;;;;;;;588.90;1715.20;;;;;;5010879;28;19964;-61
2022/10/26 11:22:55;;;;;;;;;;;589.10;1740.80;;;;;;5010835;28;19910;-61
2022/10/26 11:25:46;;;;;;;;;;;564.10;1740.80;;;;;;5010715;28;19916;-57
2022/10/26 11:28:12;;;;;;;;;;;589.00;1715.20;;;;;;5011228;28;19918;-57
2022/10/26 11:30:42;;;;;;;;;;;589.00;1740.80;;;;;;5010917;28;19971;-61
2022/10/26 11:33:10;;;;;;;;;;;588.90;1715.20;;;;;;5010745;28;20283;-58
2022/10/26 11:35:48;;;;;;;;;;;564.10;1689.60;;;;;;5010652;28;19917;-59
2022/10/26 11:38:20;;;;;;;;;;;588.80;1689.60;;;;;;5010928;28;20291;-58
2022/10/26 11:40:57;;;;;;;;;;;588.80;1664.00;;;;;;5010667;28;19953;-57
2022/10/26 11:43:32;;;;;;;;;;;588.80;1638.40;;;;;;5010592;28;19909;-57
2022/10/26 11:46:00;;;;;;;;;;;589.00;1638.40;;;;;;5010667;28;19910;-58
2022/10/26 11:48:31;;;;;;;;;;;588.90;1612.80;;;;;;5010462;28;19931;-58
2022/10/26 11:50:58;;;;;;;;;;;588.90;1612.80;;;;;;5011102;28;19937;-60
2022/10/26 11:53:25;;;;;;;;;;;588.80;1612.80;;;;;;5010488;28;19909;-60
2022/10/26 11:55:51;;;;;;;;;;;588.90;1612.80;;;;;;5012287;28;20261;-59
2022/10/26 11:58:17;;;;;;;;;;;588.90;1587.20;;;;;;5014499;28;20356;-59
2022/10/26 12:00:53;;;;;;;;;;;589.00;1587.20;;;;;;5014085;28;19910;-59
2022/10/26 12:03:22;;;;;;;;;;;589.00;1561.60;;;;;;5014373;28;19909;-59
2022/10/26 12:05:51;;;;;;;;;;;589.00;1561.60;;;;;;5014138;28;19926;-58
2022/10/26 12:08:16;;;;;;;;;;;589.00;1561.60;;;;;;5014132;28;19929;-59
2022/10/26 12:10:42;;;;;;;;;;;588.90;1561.60;;;;;;5014189;28;19910;-59
2022/10/26 12:13:26;;;;;;;;;;;589.00;1561.60;;;;;;5014121;28;19916;-59
2022/10/26 12:15:55;;;;;;;;;;;589.00;1561.60;;;;;;5013975;28;19965;-58
2022/10/26 12:18:34;;;;;;;;;;;589.10;1561.60;;;;;;5013918;28;20292;-59
2022/10/26 12:21:03;;;;;;;;;;;589.20;1536.00;;;;;;5012308;28;19913;-60
2022/10/26 12:23:36;;;;;;;;;;;589.10;1561.60;;;;;;5012471;28;19967;-59
2022/10/26 12:26:20;;;;;;;;;;;589.00;1561.60;;;;;;5012185;28;19913;-58
2022/10/26 12:28:46;;;;;;;;;;;589.00;1561.60;;;;;;5012580;28;19925;-58
2022/10/26 12:31:30;;;;;;;;;;;589.00;1561.60;;;;;;5012291;28;20363;-59
2022/10/26 12:33:55;;;;;;;;;;;588.90;1536.00;;;;;;5011672;28;19921;-59
2022/10/26 12:36:40;;;;;;;;;;;589.00;1561.60;;;;;;5012015;28;19917;-60
2022/10/26 12:39:24;;;;;;;;;;;589.00;1561.60;;;;;;5012409;28;19914;-60
2022/10/26 12:42:16;;;;;;;;;;;589.10;1561.60;;;;;;5011928;28;19914;-60
2022/10/26 12:44:42;;;;;;;;;;;589.10;1561.60;;;;;;5028931;28;19909;-59
2022/10/26 12:47:09;;;;;;;;;;;589.10;1561.60;;;;;;5028612;28;19940;-60
2022/10/26 12:49:53;;;;;;;;;;;589.00;1587.20;;;;;;5028957;28;19913;-59
2022/10/26 12:52:19;;;;;;;;;;;588.90;1587.20;;;;;;5029222;28;20393;-60
2022/10/26 12:54:52;;;;;;;;;;;589.00;1612.80;;;;;;5028867;28;19909;-60
2022/10/26 12:57:23;;;;;;;;;;;589.00;1587.20;;;;;;5029161;28;20048;-58
2022/10/26 12:59:53;;;;;;;;;;;589.00;1612.80;;;;;;5028566;28;19935;-60
2022/10/26 13:02:25;;;;;;;;;;;589.00;1612.80;;;;;;5028932;28;19987;-59
2022/10/26 13:05:08;;;;;;;;;;;589.00;1612.80;;;;;;5028426;28;20016;-59
2022/10/26 13:07:35;;;;;;;;;;;589.00;1612.80;;;;;;5027686;28;20311;-60
2022/10/26 13:10:05;;;;;;;;;;;589.00;1638.40;;;;;;5028498;28;20428;-60
2022/10/26 13:12:49;;;;;;;;;;;588.90;1638.40;;;;;;5028182;28;19953;-60
2022/10/26 13:15:23;;;;;;;;;;;589.00;1638.40;;;;;;5028548;28;19956;-59
2022/10/26 13:17:59;;;;;;;;;;;588.90;1638.40;;;;;;5028795;28;19909;-59
2022/10/26 13:20:25;;;;;;;;;;;588.80;1638.40;;;;;;5027689;28;19913;-59
2022/10/26 13:22:51;;;;;;;;;;;588.90;1638.40;;;;;;5011095;28;19914;-59
2022/10/26 13:25:22;;;;;;;;;;;588.90;1638.40;;;;;;5010983;28;19956;-59
2022/10/26 13:27:59;;;;;;;;;;;588.90;1638.40;;;;;;5010950;28;19921;-59
2022/10/26 13:30:44;;;;;;;;;;;588.90;1664.00;;;;;;5010974;28;20312;-60
2022/10/26 13:33:21;;;;;;;;;;;588.90;1638.40;;;;;;5010910;28;19913;-60
2022/10/26 13:35:50;;;;;;;;;;;588.80;1664.00;;;;;;5010975;28;19920;-59
2022/10/26 13:38:18;;;;;;;;;;;564.10;1664.00;;;;;;5011119;28;20445;-59
2022/10/26 13:40:44;;;;;;;;;;;564.10;1689.60;;;;;;5010486;28;19987;-59
2022/10/26 13:43:19;;;;;;;;;;;564.10;1689.60;;;;;;5010989;28;20360;-58
2022/10/26 13:45:47;;;;;;;;;;;588.80;1689.60;;;;;;5010837;28;19910;-59
2022/10/26 13:48:18;;;;;;;;;;;588.80;1664.00;;;;;;5010811;28;19962;-59
2022/10/26 13:50:48;;;;;;;;;;;564.10;1664.00;;;;;;5010620;28;20354;-58